sensor_id;sensor_type;location;lat;lon;timestamp;pressure;altitude;pressure_sealevel;temperature;humidity
10510;BME280;5303;53.266;10.410;2023-02-21T00:02:34;101014.94;;;11.13;100.00
10510;BME280;5303;53.266;10.410;2023-02-21T00:05:18;101009.50;;;11.05;100.00
10510;BME280;5303;53.266;10.410;2023-02-21T00:08:02;101015.31;;;11.02;100.00
10510;BME280;5303;53.266;10.410;2023-02-21T00:10:46;101015.44;;;11.01;100.00
10510;BME280;5303;53.266;10.410;2023-02-21T00:13:30;101020.06;;;11.00;100.00
10510;BME280;5303;53.266;10.410;2023-02-21T00:16:15;101017.34;;;11.08;100.00
10510;BME280;5303;53.266;10.410;2023-02-21T00:18:59;101020.22;;;11.15;100.00
10510;BME280;5303;53.266;10.410;2023-02-21T00:21:43;101021.25;;;11.06;100.00
10510;BME280;5303;53.266;10.410;2023-02-21T00:24:27;101022.78;;;11.00;100.00
10510;BME280;5303;53.266;10.410;2023-02-21T00:27:11;101023.66;;;11.09;100.00
10510;BME280;5303;53.266;10.410;2023-02-21T00:29:55;101037.28;;;11.09;100.00
10510;BME280;5303;53.266;10.410;2023-02-21T00:32:39;101036.06;;;11.03;100.00
10510;BME280;5303;53.266;10.410;2023-02-21T00:35:23;101039.13;;;11.16;100.00
10510;BME280;5303;53.266;10.410;2023-02-21T00:38:07;101046.31;;;11.01;100.00
10510;BME280;5303;53.266;10.410;2023-02-21T00:40:51;101048.00;;;11.02;100.00
10510;BME280;5303;53.266;10.410;2023-02-21T00:43:35;101049.72;;;11.11;100.00
10510;BME280;5303;53.266;10.410;2023-02-21T00:46:19;101058.03;;;11.10;100.00
10510;BME280;5303;53.266;10.410;2023-02-21T00:49:04;101042.06;;;10.99;100.00
10510;BME280;5303;53.266;10.410;2023-02-21T00:51:48;101043.75;;;11.08;100.00
10510;BME280;5303;53.266;10.410;2023-02-21T00:54:32;101047.31;;;11.00;100.00
10510;BME280;5303;53.266;10.410;2023-02-21T00:57:17;101046.81;;;11.13;100.00
10510;BME280;5303;53.266;10.410;2023-02-21T01:00:03;101041.19;;;10.98;100.00
10510;BME280;5303;53.266;10.410;2023-02-21T01:02:47;101055.50;;;10.92;100.00
10510;BME280;5303;53.266;10.410;2023-02-21T01:05:31;101052.09;;;11.06;100.00
10510;BME280;5303;53.266;10.410;2023-02-21T01:08:15;101050.91;;;11.09;100.00
10510;BME280;5303;53.266;10.410;2023-02-21T01:10:59;101057.56;;;11.14;100.00
10510;BME280;5303;53.266;10.410;2023-02-21T01:13:43;101062.50;;;11.11;100.00
10510;BME280;5303;53.266;10.410;2023-02-21T01:16:28;101059.78;;;11.11;100.00
10510;BME280;5303;53.266;10.410;2023-02-21T01:19:12;101065.53;;;11.16;100.00
10510;BME280;5303;53.266;10.410;2023-02-21T01:21:56;101064.72;;;11.24;100.00
10510;BME280;5303;53.266;10.410;2023-02-21T01:24:40;101071.00;;;11.08;100.00
10510;BME280;5303;53.266;10.410;2023-02-21T01:27:24;101070.50;;;11.12;100.00
10510;BME280;5303;53.266;10.410;2023-02-21T01:30:08;101065.22;;;11.19;100.00
10510;BME280;5303;53.266;10.410;2023-02-21T01:32:51;101070.31;;;11.06;100.00
10510;BME280;5303;53.266;10.410;2023-02-21T01:35:35;101065.72;;;11.06;100.00
10510;BME280;5303;53.266;10.410;2023-02-21T01:38:19;101072.53;;;11.02;100.00
10510;BME280;5303;53.266;10.410;2023-02-21T01:41:03;101079.19;;;11.16;100.00
10510;BME280;5303;53.266;10.410;2023-02-21T01:44:00;101073.72;;;11.16;100.00
10510;BME280;5303;53.266;10.410;2023-02-21T01:46:44;101074.06;;;11.13;100.00
10510;BME280;5303;53.266;10.410;2023-02-21T01:49:28;101078.66;;;11.12;100.00
10510;BME280;5303;53.266;10.410;2023-02-21T01:52:13;101079.00;;;11.09;100.00
10510;BME280;5303;53.266;10.410;2023-02-21T01:54:57;101067.94;;;11.11;100.00
10510;BME280;5303;53.266;10.410;2023-02-21T01:57:43;101065.56;;;11.08;100.00
10510;BME280;5303;53.266;10.410;2023-02-21T02:00:28;101066.41;;;11.00;100.00
10510;BME280;5303;53.266;10.410;2023-02-21T02:03:15;101065.38;;;11.09;100.00
10510;BME280;5303;53.266;10.410;2023-02-21T02:06:09;101068.63;;;11.05;100.00
10510;BME280;5303;53.266;10.410;2023-02-21T02:08:53;101071.69;;;11.02;100.00
10510;BME280;5303;53.266;10.410;2023-02-21T02:11:59;101062.81;;;11.24;100.00
10510;BME280;5303;53.266;10.410;2023-02-21T02:20:02;101052.09;;;11.06;100.00
10510;BME280;5303;53.266;10.410;2023-02-21T02:25:51;101058.56;;;11.05;100.00
10510;BME280;5303;53.266;10.410;2023-02-21T02:36:52;101041.50;;;11.19;100.00
10510;BME280;5303;53.266;10.410;2023-02-21T02:39:45;101043.41;;;10.94;100.00
10510;BME280;5303;53.266;10.410;2023-02-21T02:44:59;101044.75;;;11.07;100.00
10510;BME280;5303;53.266;10.410;2023-02-21T02:47:32;101043.25;;;11.21;100.00
10510;BME280;5303;53.266;10.410;2023-02-21T02:50:00;101042.03;;;11.07;100.00
10510;BME280;5303;53.266;10.410;2023-02-21T02:52:27;101052.44;;;11.11;100.00
10510;BME280;5303;53.266;10.410;2023-02-21T02:55:00;101045.63;;;10.99;100.00
10510;BME280;5303;53.266;10.410;2023-02-21T02:57:29;101046.47;;;11.00;100.00
10510;BME280;5303;53.266;10.410;2023-02-21T03:00:03;101047.31;;;11.00;100.00
10510;BME280;5303;53.266;10.410;2023-02-21T03:05:15;101045.13;;;10.95;100.00
10510;BME280;5303;53.266;10.410;2023-02-21T03:08:03;101049.72;;;10.95;100.00
10510;BME280;5303;53.266;10.410;2023-02-21T03:10:46;101057.91;;;10.95;100.00
10510;BME280;5303;53.266;10.410;2023-02-21T03:13:36;101063.34;;;10.95;100.00
10510;BME280;5303;53.266;10.410;2023-02-21T03:16:15;101063.16;;;11.13;100.00
10510;BME280;5303;53.266;10.410;2023-02-21T03:18:46;101049.69;;;11.19;100.00
10510;BME280;5303;53.266;10.410;2023-02-21T03:21:22;101057.53;;;11.23;100.00
10510;BME280;5303;53.266;10.410;2023-02-21T03:23:51;101054.81;;;11.14;100.00
10510;BME280;5303;53.266;10.410;2023-02-21T03:26:19;101053.09;;;10.97;100.00
10510;BME280;5303;53.266;10.410;2023-02-21T03:28:45;101057.38;;;11.00;100.00
10510;BME280;5303;53.266;10.410;2023-02-21T03:31:13;101055.50;;;11.08;100.00
10510;BME280;5303;53.266;10.410;2023-02-21T03:33:40;101051.41;;;10.96;100.00
10510;BME280;5303;53.266;10.410;2023-02-21T03:36:05;101055.16;;;11.11;100.00
10510;BME280;5303;53.266;10.410;2023-02-21T03:38:33;101052.97;;;10.99;100.00
10510;BME280;5303;53.266;10.410;2023-02-21T03:40:58;101054.31;;;11.03;100.00
10510;BME280;5303;53.266;10.410;2023-02-21T03:43:24;101061.28;;;10.97;100.00
10510;BME280;5303;53.266;10.410;2023-02-21T03:45:49;101061.63;;;11.02;100.00
10510;BME280;5303;53.266;10.410;2023-02-21T03:48:14;101059.75;;;10.94;100.00
10510;BME280;5303;53.266;10.410;2023-02-21T03:50:40;101061.63;;;11.02;100.00
10510;BME280;5303;53.266;10.410;2023-02-21T03:53:05;101069.63;;;11.04;100.00
10510;BME280;5303;53.266;10.410;2023-02-21T03:55:30;101062.13;;;10.98;100.00
10510;BME280;5303;53.266;10.410;2023-02-21T03:57:55;101064.19;;;10.95;100.00
10510;BME280;5303;53.266;10.410;2023-02-21T04:00:21;101056.34;;;10.92;100.00
10510;BME280;5303;53.266;10.410;2023-02-21T04:02:46;101064.84;;;10.81;100.00
10510;BME280;5303;53.266;10.410;2023-02-21T04:05:12;101066.91;;;10.87;100.00
10510;BME280;5303;53.266;10.410;2023-02-21T04:07:37;101065.56;;;10.91;100.00
10510;BME280;5303;53.266;10.410;2023-02-21T04:10:02;101066.41;;;10.84;100.00
10510;BME280;5303;53.266;10.410;2023-02-21T04:12:28;101069.13;;;10.76;100.00
10510;BME280;5303;53.266;10.410;2023-02-21T04:14:53;101057.72;;;10.96;100.00
10510;BME280;5303;53.266;10.410;2023-02-21T04:17:20;101066.75;;;10.89;100.00
10510;BME280;5303;53.266;10.410;2023-02-21T04:19:46;101069.81;;;10.86;100.00
10510;BME280;5303;53.266;10.410;2023-02-21T04:22:11;101070.47;;;10.88;100.00
10510;BME280;5303;53.266;10.410;2023-02-21T04:24:36;101066.25;;;10.85;100.00
10510;BME280;5303;53.266;10.410;2023-02-21T04:27:01;101075.41;;;10.84;100.00
10510;BME280;5303;53.266;10.410;2023-02-21T04:29:27;101062.31;;;10.80;100.00
10510;BME280;5303;53.266;10.410;2023-02-21T04:31:52;101074.94;;;10.89;100.00
10510;BME280;5303;53.266;10.410;2023-02-21T04:34:19;101073.72;;;10.83;100.00
10510;BME280;5303;53.266;10.410;2023-02-21T04:36:45;101076.09;;;10.78;100.00
10510;BME280;5303;53.266;10.410;2023-02-21T04:39:10;101075.25;;;10.86;100.00
10510;BME280;5303;53.266;10.410;2023-02-21T04:41:35;101082.41;;;10.87;100.00
10510;BME280;5303;53.266;10.410;2023-02-21T04:44:01;101081.03;;;10.75;100.00
10510;BME280;5303;53.266;10.410;2023-02-21T04:46:26;101073.38;;;10.86;100.00
10510;BME280;5303;53.266;10.410;2023-02-21T04:48:51;101075.56;;;10.75;100.00
10510;BME280;5303;53.266;10.410;2023-02-21T04:51:21;101076.81;;;10.88;100.00
10510;BME280;5303;53.266;10.410;2023-02-21T04:53:48;101069.31;;;10.82;100.00
10510;BME280;5303;53.266;10.410;2023-02-21T04:56:14;101074.56;;;10.84;100.00
10510;BME280;5303;53.266;10.410;2023-02-21T04:58:41;101083.41;;;10.69;100.00
10510;BME280;5303;53.266;10.410;2023-02-21T05:01:06;101074.22;;;10.70;100.00
10510;BME280;5303;53.266;10.410;2023-02-21T05:03:32;101079.47;;;10.64;100.00
10510;BME280;5303;53.266;10.410;2023-02-21T05:05:57;101074.41;;;10.69;100.00
10510;BME280;5303;53.266;10.410;2023-02-21T05:08:22;101076.75;;;10.64;100.00
10510;BME280;5303;53.266;10.410;2023-02-21T05:10:49;101069.44;;;10.81;100.00
10510;BME280;5303;53.266;10.410;2023-02-21T05:13:14;101068.81;;;10.95;100.00
10510;BME280;5303;53.266;10.410;2023-02-21T05:15:40;101078.81;;;10.70;100.00
10510;BME280;5303;53.266;10.410;2023-02-21T05:18:05;101078.81;;;10.70;100.00
10510;BME280;5303;53.266;10.410;2023-02-21T05:20:30;101084.09;;;10.63;100.00
10510;BME280;5303;53.266;10.410;2023-02-21T05:22:56;101074.88;;;10.64;100.00
10510;BME280;5303;53.266;10.410;2023-02-21T05:25:22;101086.97;;;10.62;100.00
10510;BME280;5303;53.266;10.410;2023-02-21T05:27:49;101081.69;;;10.68;100.00
10510;BME280;5303;53.266;10.410;2023-02-21T05:30:17;101087.16;;;10.77;100.00
10510;BME280;5303;53.266;10.410;2023-02-21T05:32:43;101084.75;;;10.65;100.00
10510;BME280;5303;53.266;10.410;2023-02-21T05:35:09;101076.94;;;10.70;100.00
10510;BME280;5303;53.266;10.410;2023-02-21T05:37:34;101076.41;;;10.75;100.00
10510;BME280;5303;53.266;10.410;2023-02-21T05:40:00;101081.88;;;10.67;100.00
10510;BME280;5303;53.266;10.410;2023-02-21T05:42:25;101078.00;;;10.86;100.00
10510;BME280;5303;53.266;10.410;2023-02-21T05:44:50;101095.47;;;10.59;100.00
10510;BME280;5303;53.266;10.410;2023-02-21T05:47:16;101096.69;;;10.64;100.00
10510;BME280;5303;53.266;10.410;2023-02-21T05:49:42;101090.75;;;10.77;100.00
10510;BME280;5303;53.266;10.410;2023-02-21T05:52:10;101090.84;;;10.59;100.00
10510;BME280;5303;53.266;10.410;2023-02-21T05:54:35;101092.59;;;10.60;100.00
10510;BME280;5303;53.266;10.410;2023-02-21T05:57:01;101086.44;;;10.58;100.00
10510;BME280;5303;53.266;10.410;2023-02-21T05:59:26;101095.31;;;10.60;100.00
10510;BME280;5303;53.266;10.410;2023-02-21T06:01:51;101097.53;;;10.57;100.00
10510;BME280;5303;53.266;10.410;2023-02-21T06:04:17;101092.59;;;10.68;100.00
10510;BME280;5303;53.266;10.410;2023-02-21T06:06:43;101104.69;;;10.66;100.00
10510;BME280;5303;53.266;10.410;2023-02-21T06:09:09;101106.72;;;10.64;100.00
10510;BME280;5303;53.266;10.410;2023-02-21T06:11:36;101111.31;;;10.63;100.00
10510;BME280;5303;53.266;10.410;2023-02-21T06:14:04;101105.22;;;10.69;100.00
10510;BME280;5303;53.266;10.410;2023-02-21T06:16:37;101110.31;;;10.72;100.00
10510;BME280;5303;53.266;10.410;2023-02-21T06:19:04;101111.53;;;10.94;100.00
10510;BME280;5303;53.266;10.410;2023-02-21T06:21:30;101121.56;;;10.69;100.00
10510;BME280;5303;53.266;10.410;2023-02-21T06:23:55;101118.47;;;10.56;100.00
10510;BME280;5303;53.266;10.410;2023-02-21T06:26:21;101123.72;;;10.58;100.00
10510;BME280;5303;53.266;10.410;2023-02-21T06:28:47;101129.00;;;10.59;100.00
10510;BME280;5303;53.266;10.410;2023-02-21T06:31:13;101132.09;;;10.64;100.00
10510;BME280;5303;53.266;10.410;2023-02-21T06:33:39;101148.81;;;10.69;100.00
10510;BME280;5303;53.266;10.410;2023-02-21T06:36:11;101142.78;;;10.58;100.00
10510;BME280;5303;53.266;10.410;2023-02-21T06:38:37;101150.78;;;10.59;100.00
10510;BME280;5303;53.266;10.410;2023-02-21T06:41:07;101149.94;;;10.59;100.00
10510;BME280;5303;53.266;10.410;2023-02-21T06:43:33;101155.44;;;10.67;100.00
10510;BME280;5303;53.266;10.410;2023-02-21T06:46:00;101163.56;;;10.59;100.00
10510;BME280;5303;53.266;10.410;2023-02-21T06:48:26;101159.53;;;10.71;100.00
10510;BME280;5303;53.266;10.410;2023-02-21T06:50:51;101165.81;;;10.63;100.00
10510;BME280;5303;53.266;10.410;2023-02-21T06:53:16;101171.59;;;10.60;100.00
10510;BME280;5303;53.266;10.410;2023-02-21T06:55:41;101164.31;;;10.69;100.00
10510;BME280;5303;53.266;10.410;2023-02-21T06:58:07;101164.63;;;10.66;100.00
10510;BME280;5303;53.266;10.410;2023-02-21T07:00:32;101178.78;;;10.69;100.00
10510;BME280;5303;53.266;10.410;2023-02-21T07:02:58;101169.56;;;10.70;100.00
10510;BME280;5303;53.266;10.410;2023-02-21T07:05:23;101168.69;;;10.62;100.00
10510;BME280;5303;53.266;10.410;2023-02-21T07:07:49;101162.94;;;10.73;100.00
10510;BME280;5303;53.266;10.410;2023-02-21T07:10:14;101172.94;;;10.64;100.00
10510;BME280;5303;53.266;10.410;2023-02-21T07:12:39;101166.31;;;10.67;100.00
10510;BME280;5303;53.266;10.410;2023-02-21T07:15:06;101180.41;;;10.54;100.00
10510;BME280;5303;53.266;10.410;2023-02-21T07:17:31;101184.19;;;10.61;100.00
10510;BME280;5303;53.266;10.410;2023-02-21T07:19:56;101195.59;;;10.57;100.00
10510;BME280;5303;53.266;10.410;2023-02-21T07:22:22;101199.63;;;10.53;100.00
10510;BME280;5303;53.266;10.410;2023-02-21T07:24:54;101196.56;;;10.56;100.00
10510;BME280;5303;53.266;10.410;2023-02-21T07:27:21;101203.25;;;10.61;100.00
10510;BME280;5303;53.266;10.410;2023-02-21T07:29:47;101209.03;;;10.58;100.00
10510;BME280;5303;53.266;10.410;2023-02-21T07:32:14;101202.44;;;10.69;100.00
10510;BME280;5303;53.266;10.410;2023-02-21T07:34:39;101204.81;;;10.72;100.00
10510;BME280;5303;53.266;10.410;2023-02-21T07:37:04;101206.88;;;10.70;100.00
10510;BME280;5303;53.266;10.410;2023-02-21T07:39:30;101213.88;;;10.72;100.00
10510;BME280;5303;53.266;10.410;2023-02-21T07:41:56;101206.34;;;10.75;100.00
10510;BME280;5303;53.266;10.410;2023-02-21T07:44:21;101216.41;;;10.74;100.00
10510;BME280;5303;53.266;10.410;2023-02-21T07:46:47;101218.28;;;10.82;100.00
10510;BME280;5303;53.266;10.410;2023-02-21T07:49:12;101207.56;;;10.80;100.00
10510;BME280;5303;53.266;10.410;2023-02-21T07:51:37;101217.59;;;10.71;100.00
10510;BME280;5303;53.266;10.410;2023-02-21T07:54:03;101214.44;;;10.92;100.00
10510;BME280;5303;53.266;10.410;2023-02-21T07:56:28;101223.94;;;10.80;100.00
10510;BME280;5303;53.266;10.410;2023-02-21T07:58:53;101227.69;;;10.87;100.00
10510;BME280;5303;53.266;10.410;2023-02-21T08:01:21;101224.78;;;10.81;100.00
10510;BME280;5303;53.266;10.410;2023-02-21T08:03:47;101229.09;;;10.91;100.00
10510;BME280;5303;53.266;10.410;2023-02-21T08:06:12;101227.38;;;10.90;100.00
10510;BME280;5303;53.266;10.410;2023-02-21T08:08:38;101226.84;;;10.87;100.00
10510;BME280;5303;53.266;10.410;2023-02-21T08:11:03;101232.63;;;10.84;100.00
10510;BME280;5303;53.266;10.410;2023-02-21T08:13:29;101225.84;;;10.96;100.00
10510;BME280;5303;53.266;10.410;2023-02-21T08:15:54;101244.22;;;10.94;100.00
10510;BME280;5303;53.266;10.410;2023-02-21T08:18:21;101236.72;;;10.88;100.00
10510;BME280;5303;53.266;10.410;2023-02-21T08:20:51;101239.56;;;10.78;100.00
10510;BME280;5303;53.266;10.410;2023-02-21T08:23:17;101245.78;;;10.96;100.00
10510;BME280;5303;53.266;10.410;2023-02-21T08:25:44;101246.31;;;11.00;100.00
10510;BME280;5303;53.266;10.410;2023-02-21T08:28:09;101237.94;;;10.93;100.00
10510;BME280;5303;53.266;10.410;2023-02-21T08:30:35;101242.41;;;11.03;100.00
10510;BME280;5303;53.266;10.410;2023-02-21T08:33:00;101247.66;;;11.04;100.00
10510;BME280;5303;53.266;10.410;2023-02-21T08:35:25;101246.97;;;10.94;100.00
10510;BME280;5303;53.266;10.410;2023-02-21T08:37:51;101241.88;;;11.07;100.00
10510;BME280;5303;53.266;10.410;2023-02-21T08:40:20;101249.78;;;11.18;100.00
10510;BME280;5303;53.266;10.410;2023-02-21T08:42:50;101251.84;;;11.25;100.00
10510;BME280;5303;53.266;10.410;2023-02-21T08:45:19;101248.25;;;11.32;100.00
10510;BME280;5303;53.266;10.410;2023-02-21T08:47:45;101255.59;;;11.32;100.00
10510;BME280;5303;53.266;10.410;2023-02-21T08:50:10;101254.75;;;11.31;100.00
10510;BME280;5303;53.266;10.410;2023-02-21T08:52:36;101261.06;;;11.40;100.00
10510;BME280;5303;53.266;10.410;2023-02-21T08:55:01;101256.94;;;11.28;100.00
10510;BME280;5303;53.266;10.410;2023-02-21T08:57:27;101255.63;;;11.40;100.00
10510;BME280;5303;53.266;10.410;2023-02-21T08:59:52;101265.94;;;11.20;100.00
10510;BME280;5303;53.266;10.410;2023-02-21T09:02:20;101261.72;;;11.26;100.00
10510;BME280;5303;53.266;10.410;2023-02-21T09:04:46;101266.47;;;11.15;100.00
10510;BME280;5303;53.266;10.410;2023-02-21T09:07:13;101261.06;;;11.48;100.00
10510;BME280;5303;53.266;10.410;2023-02-21T09:09:38;101258.97;;;11.26;100.00
10510;BME280;5303;53.266;10.410;2023-02-21T09:12:04;101257.81;;;11.36;100.00
10510;BME280;5303;53.266;10.410;2023-02-21T09:14:33;101261.19;;;11.22;100.00
10510;BME280;5303;53.266;10.410;2023-02-21T09:16:58;101254.75;;;11.31;100.00
10510;BME280;5303;53.266;10.410;2023-02-21T09:19:23;101254.75;;;11.39;100.00
10510;BME280;5303;53.266;10.410;2023-02-21T09:21:49;101258.31;;;11.32;100.00
10510;BME280;5303;53.266;10.410;2023-02-21T09:24:19;101266.19;;;11.51;100.00
10510;BME280;5303;53.266;10.410;2023-02-21T09:26:52;101262.78;;;11.57;100.00
10510;BME280;5303;53.266;10.410;2023-02-21T09:29:21;101264.47;;;11.42;100.00
10510;BME280;5303;53.266;10.410;2023-02-21T09:31:47;101277.28;;;11.50;100.00
10510;BME280;5303;53.266;10.410;2023-02-21T09:34:13;101277.44;;;11.40;100.00
10510;BME280;5303;53.266;10.410;2023-02-21T09:36:38;101284.63;;;11.57;100.00
10510;BME280;5303;53.266;10.410;2023-02-21T09:39:03;101285.66;;;11.56;100.00
10510;BME280;5303;53.266;10.410;2023-02-21T09:41:31;101291.94;;;11.49;100.00
10510;BME280;5303;53.266;10.410;2023-02-21T09:43:58;101293.91;;;11.22;100.00
10510;BME280;5303;53.266;10.410;2023-02-21T09:46:33;101304.19;;;11.45;100.00
10510;BME280;5303;53.266;10.410;2023-02-21T09:49:01;101305.03;;;11.37;100.00
10510;BME280;5303;53.266;10.410;2023-02-21T09:51:30;101314.81;;;11.05;100.00
10510;BME280;5303;53.266;10.410;2023-02-21T09:53:57;101306.13;;;11.10;100.00
10510;BME280;5303;53.266;10.410;2023-02-21T09:56:40;101308.66;;;11.03;100.00
10510;BME280;5303;53.266;10.410;2023-02-21T09:59:10;101314.03;;;11.21;100.00
10510;BME280;5303;53.266;10.410;2023-02-21T10:01:55;101310.97;;;11.32;100.00
10510;BME280;5303;53.266;10.410;2023-02-21T10:07:17;101324.75;;;11.23;100.00
10510;BME280;5303;53.266;10.410;2023-02-21T10:09:54;101315.59;;;11.24;100.00
10510;BME280;5303;53.266;10.410;2023-02-21T10:12:29;101324.81;;;11.31;100.00
10510;BME280;5303;53.266;10.410;2023-02-21T10:15:15;101325.78;;;11.30;100.00
10510;BME280;5303;53.266;10.410;2023-02-21T10:17:57;101319.22;;;11.49;100.00
10510;BME280;5303;53.266;10.410;2023-02-21T10:20:38;101322.91;;;11.31;100.00
10510;BME280;5303;53.266;10.410;2023-02-21T10:23:14;101315.78;;;11.30;100.00
10510;BME280;5303;53.266;10.410;2023-02-21T10:25:43;101328.53;;;11.30;100.00
10510;BME280;5303;53.266;10.410;2023-02-21T10:28:17;101329.94;;;11.34;100.00
10510;BME280;5303;53.266;10.410;2023-02-21T10:30:43;101318.53;;;11.04;100.00
10510;BME280;5303;53.266;10.410;2023-02-21T10:33:09;101323.72;;;11.15;100.00
10510;BME280;5303;53.266;10.410;2023-02-21T10:35:37;101325.59;;;11.15;100.00
10510;BME280;5303;53.266;10.410;2023-02-21T10:38:05;101321.50;;;11.11;100.00
10510;BME280;5303;53.266;10.410;2023-02-21T10:40:55;101320.47;;;11.20;100.00
10510;BME280;5303;53.266;10.410;2023-02-21T10:43:40;101317.44;;;11.23;100.00
10510;BME280;5303;53.266;10.410;2023-02-21T10:46:14;101318.84;;;11.35;100.00
10510;BME280;5303;53.266;10.410;2023-02-21T10:48:46;101325.13;;;11.36;100.00
10510;BME280;5303;53.266;10.410;2023-02-21T10:51:17;101324.81;;;11.31;100.00
10510;BME280;5303;53.266;10.410;2023-02-21T10:53:52;101319.38;;;11.47;100.00
10510;BME280;5303;53.266;10.410;2023-02-21T10:56:21;101317.72;;;11.71;100.00
10510;BME280;5303;53.266;10.410;2023-02-21T10:58:57;101330.63;;;11.52;100.00
10510;BME280;5303;53.266;10.410;2023-02-21T11:04:06;101323.47;;;11.51;100.00
10510;BME280;5303;53.266;10.410;2023-02-21T11:12:21;101339.47;;;11.38;100.00
10510;BME280;5303;53.266;10.410;2023-02-21T11:17:21;101344.19;;;11.19;100.00
10510;BME280;5303;53.266;10.410;2023-02-21T11:19:55;101345.91;;;11.21;100.00
10510;BME280;5303;53.266;10.410;2023-02-21T11:27:43;101346.06;;;11.19;100.00
10510;BME280;5303;53.266;10.410;2023-02-21T11:30:13;101348.25;;;11.15;100.00
10510;BME280;5303;53.266;10.410;2023-02-21T11:32:41;101341.97;;;11.23;100.00
10510;BME280;5303;53.266;10.410;2023-02-21T11:37:56;101339.69;;;11.10;100.00
10510;BME280;5303;53.266;10.410;2023-02-21T11:40:49;101340.31;;;11.30;100.00
10510;BME280;5303;53.266;10.410;2023-02-21T11:43:28;101337.78;;;11.37;100.00
10510;BME280;5303;53.266;10.410;2023-02-21T11:48:33;101335.25;;;11.52;100.00
10510;BME280;5303;53.266;10.410;2023-02-21T11:51:05;101329.09;;;11.41;100.00
10510;BME280;5303;53.266;10.410;2023-02-21T11:53:38;101331.16;;;11.48;100.00
10510;BME280;5303;53.266;10.410;2023-02-21T11:56:14;101326.38;;;11.50;100.00
10510;BME280;5303;53.266;10.410;2023-02-21T12:01:28;101326.38;;;11.58;100.00
10510;BME280;5303;53.266;10.410;2023-02-21T12:09:46;101324.00;;;11.55;100.00
10510;BME280;5303;53.266;10.410;2023-02-21T12:15:04;101329.31;;;11.81;100.00
10510;BME280;5303;53.266;10.410;2023-02-21T12:17:53;101323.56;;;11.92;100.00
10510;BME280;5303;53.266;10.410;2023-02-21T12:26:03;101327.69;;;12.04;100.00
10510;BME280;5303;53.266;10.410;2023-02-21T12:28:39;101322.56;;;12.01;100.00
10510;BME280;5303;53.266;10.410;2023-02-21T12:31:27;101323.53;;;11.84;100.00
10510;BME280;5303;53.266;10.410;2023-02-21T12:47:10;101315.03;;;12.03;100.00
10510;BME280;5303;53.266;10.410;2023-02-21T12:52:29;101318.44;;;11.97;100.00
10510;BME280;5303;53.266;10.410;2023-02-21T12:55:06;101306.13;;;11.77;100.00
10510;BME280;5303;53.266;10.410;2023-02-21T12:58:03;101314.63;;;11.57;100.00
10510;BME280;5303;53.266;10.410;2023-02-21T13:00:39;101309.38;;;11.72;100.00
10510;BME280;5303;53.266;10.410;2023-02-21T13:05:58;101316.72;;;11.80;100.00
10510;BME280;5303;53.266;10.410;2023-02-21T13:14:02;101329.97;;;11.58;100.00
10510;BME280;5303;53.266;10.410;2023-02-21T13:16:32;101329.63;;;11.61;100.00
10510;BME280;5303;53.266;10.410;2023-02-21T13:19:01;101322.94;;;11.39;100.00
10510;BME280;5303;53.266;10.410;2023-02-21T13:29:50;101304.22;;;11.53;100.00
10510;BME280;5303;53.266;10.410;2023-02-21T13:32:17;101305.75;;;11.72;100.00
10510;BME280;5303;53.266;10.410;2023-02-21T13:34:52;101313.47;;;11.76;100.00
10510;BME280;5303;53.266;10.410;2023-02-21T13:37:20;101309.59;;;11.95;100.00
10510;BME280;5303;53.266;10.410;2023-02-21T13:39:52;101306.00;;;11.95;100.00
10510;BME280;5303;53.266;10.410;2023-02-21T13:42:21;101302.22;;;11.87;100.00
10510;BME280;5303;53.266;10.410;2023-02-21T13:44:54;101301.88;;;12.07;100.00
10510;BME280;5303;53.266;10.410;2023-02-21T13:56:13;101294.38;;;11.84;100.00
10510;BME280;5303;53.266;10.410;2023-02-21T13:58:41;101296.09;;;11.94;100.00
10510;BME280;5303;53.266;10.410;2023-02-21T14:01:38;101302.72;;;11.83;100.00
10510;BME280;5303;53.266;10.410;2023-02-21T14:04:49;101303.25;;;11.86;100.00
10510;BME280;5303;53.266;10.410;2023-02-21T14:07:42;101308.31;;;11.65;100.00
10510;BME280;5303;53.266;10.410;2023-02-21T14:10:51;101302.91;;;11.81;100.00
10510;BME280;5303;53.266;10.410;2023-02-21T14:13:26;101300.66;;;11.77;100.00
10510;BME280;5303;53.266;10.410;2023-02-21T14:15:57;101299.97;;;11.75;100.00
10510;BME280;5303;53.266;10.410;2023-02-21T14:18:28;101291.63;;;11.76;100.00
10510;BME280;5303;53.266;10.410;2023-02-21T14:20:55;101301.16;;;11.56;100.00
10510;BME280;5303;53.266;10.410;2023-02-21T14:23:30;101302.19;;;11.71;100.00
10510;BME280;5303;53.266;10.410;2023-02-21T14:25:59;101297.94;;;11.69;100.00
10510;BME280;5303;53.266;10.410;2023-02-21T14:34:13;101305.94;;;11.70;100.00
10510;BME280;5303;53.266;10.410;2023-02-21T14:36:41;101304.75;;;11.73;100.00
10510;BME280;5303;53.266;10.410;2023-02-21T14:39:07;101305.94;;;11.70;100.00
10510;BME280;5303;53.266;10.410;2023-02-21T14:41:42;101314.75;;;11.39;100.00
10510;BME280;5303;53.266;10.410;2023-02-21T14:52:39;101305.56;;;11.49;100.00
10510;BME280;5303;53.266;10.410;2023-02-21T15:03:23;101313.03;;;11.38;100.00
10510;BME280;5303;53.266;10.410;2023-02-21T15:08:26;101315.22;;;11.18;100.00
10510;BME280;5303;53.266;10.410;2023-02-21T15:10:54;101315.09;;;11.36;100.00
10510;BME280;5303;53.266;10.410;2023-02-21T15:13:33;101305.84;;;11.29;100.00
10510;BME280;5303;53.266;10.410;2023-02-21T15:16:04;101317.59;;;11.22;100.00